createdAt,value
2018-03-15T00:00:49.650Z,63.79
2018-03-15T00:03:22.340Z,64.16
2018-03-15T00:05:48.718Z,63.48
2018-03-15T00:08:15.209Z,63.49
2018-03-15T00:10:41.606Z,64.42
2018-03-15T00:13:07.965Z,63.44
2018-03-15T00:15:34.370Z,64.51
2018-03-15T00:18:01.042Z,64.70
2018-03-15T00:20:27.541Z,67.28
2018-03-15T00:22:53.879Z,64.40
2018-03-15T00:25:20.278Z,63.82
2018-03-15T00:27:46.643Z,63.83
2018-03-15T00:30:13.030Z,63.90
2018-03-15T00:32:39.401Z,63.85
2018-03-15T00:35:05.794Z,63.65
2018-03-15T00:37:32.268Z,63.90
2018-03-15T00:39:58.649Z,64.02
2018-03-15T00:42:25.034Z,63.80
2018-03-15T00:44:51.422Z,63.41
2018-03-15T00:47:17.847Z,63.80
2018-03-15T00:49:44.282Z,63.83
2018-03-15T00:52:10.670Z,63.90
2018-03-15T00:54:37.084Z,63.06
2018-03-15T00:57:03.565Z,63.65
2018-03-15T00:59:29.949Z,63.24
2018-03-15T01:01:56.382Z,63.51
2018-03-15T01:04:22.778Z,63.24
2018-03-15T01:06:49.194Z,63.43
2018-03-15T01:09:15.601Z,62.66
2018-03-15T01:11:42.076Z,63.06
2018-03-15T01:14:08.800Z,63.91
2018-03-15T01:16:35.305Z,64.00
2018-03-15T01:19:02.541Z,64.76
2018-03-15T01:21:28.909Z,64.91
2018-03-15T01:23:55.383Z,64.87
2018-03-15T01:26:21.780Z,65.01
2018-03-15T01:28:48.145Z,64.55
2018-03-15T01:31:14.546Z,64.78
2018-03-15T01:33:40.872Z,64.93
2018-03-15T01:36:07.249Z,64.70
2018-03-15T01:38:33.589Z,64.60
2018-03-15T01:40:59.978Z,64.71
2018-03-15T01:43:26.381Z,65.03
2018-03-15T01:45:52.786Z,65.34
2018-03-15T01:48:19.212Z,65.10
2018-03-15T01:50:45.602Z,65.31
2018-03-15T01:53:11.985Z,69.37
2018-03-15T01:55:38.391Z,66.54
2018-03-15T01:58:04.806Z,65.68
2018-03-15T02:00:31.195Z,64.40
2018-03-15T02:02:57.610Z,64.36
2018-03-15T02:05:24.009Z,64.37
2018-03-15T02:07:50.384Z,66.69
2018-03-15T02:10:16.827Z,65.35
2018-03-15T02:12:43.223Z,66.04
2018-03-15T02:15:09.658Z,65.48
2018-03-15T02:17:36.128Z,65.13
2018-03-15T02:20:02.732Z,64.94
2018-03-15T02:22:29.141Z,64.74
2018-03-15T02:24:55.577Z,65.26
2018-03-15T02:27:21.922Z,65.86
2018-03-15T02:29:48.294Z,65.47
2018-03-15T02:32:14.692Z,65.78
2018-03-15T02:34:41.122Z,67.58
2018-03-15T02:37:07.495Z,66.08
2018-03-15T02:39:33.930Z,65.67
2018-03-15T02:42:00.338Z,65.20
2018-03-15T02:44:26.695Z,65.20
2018-03-15T02:46:53.094Z,69.02
2018-03-15T02:49:19.473Z,67.18
2018-03-15T02:51:45.925Z,66.60
2018-03-15T02:54:12.313Z,65.64
2018-03-15T02:56:38.749Z,65.14
2018-03-15T02:59:05.262Z,67.14
2018-03-15T03:01:31.753Z,65.81
2018-03-15T03:03:58.191Z,65.37
2018-03-15T03:06:24.544Z,64.92
2018-03-15T03:08:50.945Z,64.83
2018-03-15T03:11:17.334Z,69.10
2018-03-15T03:13:43.726Z,66.56
2018-03-15T03:16:10.375Z,66.88
2018-03-15T03:18:36.757Z,69.37
2018-03-15T03:21:03.151Z,67.99
2018-03-15T03:23:29.538Z,67.58
2018-03-15T03:25:55.922Z,65.62
2018-03-15T03:28:22.279Z,65.04
2018-03-15T03:30:48.680Z,64.76
2018-03-15T03:33:15.167Z,65.19
2018-03-15T03:35:41.681Z,65.87
2018-03-15T03:38:08.086Z,68.07
2018-03-15T03:40:34.531Z,65.02
2018-03-15T03:43:01.057Z,64.86
2018-03-15T03:45:27.458Z,65.25
2018-03-15T03:47:53.886Z,64.73
2018-03-15T03:50:20.374Z,65.32
2018-03-15T03:52:46.799Z,65.21
2018-03-15T03:55:13.209Z,64.84
2018-03-15T03:57:39.653Z,64.92
2018-03-15T04:00:06.161Z,64.72
2018-03-15T04:02:32.557Z,65.28
2018-03-15T04:04:58.961Z,65.01
2018-03-15T04:07:25.323Z,65.47
2018-03-15T04:09:51.738Z,64.99
2018-03-15T04:12:18.148Z,65.22
2018-03-15T04:14:44.584Z,65.15
2018-03-15T04:17:10.989Z,66.16
2018-03-15T04:19:37.426Z,67.52
2018-03-15T04:22:03.866Z,66.52
2018-03-15T04:24:30.221Z,66.65
2018-03-15T04:26:56.622Z,65.82
2018-03-15T04:29:23.182Z,65.72
2018-03-15T04:31:49.526Z,66.11
2018-03-15T04:34:15.922Z,66.66
2018-03-15T04:36:42.307Z,66.25
2018-03-15T04:39:09.032Z,66.36
2018-03-15T04:41:35.389Z,66.34
2018-03-15T04:44:01.770Z,66.58
2018-03-15T04:46:28.151Z,66.12
2018-03-15T04:48:54.551Z,65.91
2018-03-15T04:51:20.901Z,66.07
2018-03-15T04:53:47.241Z,66.04
2018-03-15T04:56:13.625Z,66.00
2018-03-15T04:58:40.035Z,67.75
2018-03-15T05:01:06.389Z,67.98
2018-03-15T05:03:32.903Z,67.93
2018-03-15T05:05:59.286Z,66.37
2018-03-15T05:08:25.668Z,66.27
2018-03-15T05:10:52.059Z,66.28
2018-03-15T05:13:18.550Z,65.98
2018-03-15T05:15:45.005Z,66.03
2018-03-15T05:18:11.391Z,66.63
2018-03-15T05:20:37.802Z,65.75
2018-03-15T05:23:04.205Z,65.67
2018-03-15T05:25:30.600Z,65.72
2018-03-15T05:27:57.236Z,67.25
2018-03-15T05:30:29.378Z,65.88
2018-03-15T05:32:58.042Z,67.09
2018-03-15T05:35:24.869Z,65.96
2018-03-15T05:37:51.281Z,65.16
2018-03-15T05:40:17.690Z,67.34
2018-03-15T05:42:44.106Z,65.56
2018-03-15T05:45:10.446Z,65.41
2018-03-15T05:47:36.815Z,65.72
2018-03-15T05:50:03.305Z,65.56
2018-03-15T05:52:29.768Z,66.09
2018-03-15T05:54:56.274Z,65.52
2018-03-15T05:57:22.757Z,65.07
2018-03-15T05:59:49.122Z,64.97
2018-03-15T06:02:15.500Z,65.84
2018-03-15T06:04:41.902Z,65.24
2018-03-15T06:07:08.275Z,65.27
2018-03-15T06:09:34.718Z,64.50
2018-03-15T06:12:01.376Z,64.71
2018-03-15T06:14:27.737Z,64.86
2018-03-15T06:16:54.371Z,64.00
2018-03-15T06:19:20.824Z,65.14
2018-03-15T06:21:47.262Z,63.00
2018-03-15T06:24:13.825Z,65.44
2018-03-15T06:26:40.342Z,63.22
2018-03-15T06:29:06.730Z,62.52
2018-03-15T06:31:33.130Z,66.98
2018-03-15T06:33:59.552Z,67.71
2018-03-15T06:36:25.967Z,67.84
2018-03-15T06:38:52.353Z,64.79
2018-03-15T06:41:18.783Z,66.09
2018-03-15T06:43:45.179Z,66.70
2018-03-15T06:46:11.594Z,59.59
2018-03-15T06:48:38.080Z,61.90
2018-03-15T06:51:04.483Z,58.57
2018-03-15T06:53:30.993Z,57.31
2018-03-15T06:55:57.375Z,56.36
2018-03-15T06:58:23.933Z,54.68
2018-03-15T07:00:50.386Z,55.29
2018-03-15T07:03:16.786Z,55.19
2018-03-15T07:05:43.189Z,56.99
2018-03-15T07:08:09.597Z,55.57
2018-03-15T07:10:36.087Z,55.02
2018-03-15T07:13:02.486Z,56.00
2018-03-15T07:15:29.097Z,54.99
2018-03-15T07:17:55.502Z,63.19
2018-03-15T07:20:21.913Z,62.26
2018-03-15T07:22:48.362Z,63.17
2018-03-15T07:25:14.741Z,60.73
2018-03-15T07:27:41.134Z,54.57
2018-03-15T07:30:07.547Z,54.28
2018-03-15T07:32:34.038Z,53.04
2018-03-15T07:35:00.423Z,52.40
2018-03-15T07:37:26.876Z,58.40
2018-03-15T07:39:53.291Z,53.81
2018-03-15T07:42:19.673Z,53.48
2018-03-15T07:44:46.104Z,59.38
2018-03-15T07:47:12.553Z,51.58
2018-03-15T07:49:39.035Z,53.20
2018-03-15T07:52:05.557Z,53.88
2018-03-15T07:54:31.951Z,49.74
2018-03-15T07:56:58.313Z,50.13
2018-03-15T07:59:24.801Z,49.84
2018-03-15T08:01:51.267Z,51.86
2018-03-15T08:04:17.717Z,53.34
2018-03-15T08:06:44.178Z,50.78
2018-03-15T08:09:10.585Z,53.50
2018-03-15T08:11:36.997Z,51.59
2018-03-15T08:14:03.371Z,53.20
2018-03-15T08:16:29.987Z,50.18
2018-03-15T08:18:56.404Z,49.99
2018-03-15T08:21:22.854Z,50.69
2018-03-15T08:23:49.254Z,49.90
2018-03-15T08:26:15.707Z,50.44
2018-03-15T08:28:42.188Z,51.08
2018-03-15T08:31:08.686Z,48.67
2018-03-15T08:33:35.082Z,48.70
2018-03-15T08:36:01.506Z,51.39
2018-03-15T08:38:27.947Z,48.68
2018-03-15T08:40:54.394Z,50.48
2018-03-15T08:43:20.859Z,49.33
2018-03-15T08:45:47.242Z,47.87
2018-03-15T08:48:13.622Z,48.54
2018-03-15T08:50:40.054Z,50.02
2018-03-15T08:53:06.567Z,50.13
2018-03-15T08:55:32.972Z,51.68
2018-03-15T08:57:59.352Z,53.42
2018-03-15T09:00:26.104Z,48.36
2018-03-15T09:02:52.557Z,53.97
2018-03-15T09:05:19.055Z,54.22
2018-03-15T09:07:45.963Z,49.00
2018-03-15T09:10:12.282Z,48.00
2018-03-15T09:12:38.709Z,51.63
2018-03-15T09:15:05.206Z,47.93
2018-03-15T09:17:31.616Z,52.84
2018-03-15T09:19:58.150Z,49.71
2018-03-15T09:22:24.671Z,48.11
2018-03-15T09:24:51.062Z,47.71
2018-03-15T09:27:17.506Z,48.12
2018-03-15T09:29:43.971Z,46.92
2018-03-15T09:32:10.753Z,46.80
2018-03-15T09:34:37.206Z,55.18
2018-03-15T09:37:03.728Z,48.60
2018-03-15T09:39:30.569Z,54.34
2018-03-15T09:41:57.157Z,52.41
2018-03-15T09:44:23.578Z,52.97
2018-03-15T09:46:50.054Z,45.51
2018-03-15T09:49:16.486Z,45.88
2018-03-15T09:51:42.854Z,46.68
2018-03-15T09:54:09.277Z,45.70
2018-03-15T09:56:35.679Z,45.85
2018-03-15T09:59:02.070Z,46.52
2018-03-15T10:01:28.650Z,46.02
2018-03-15T10:03:55.146Z,45.49
2018-03-15T10:06:21.538Z,52.67
2018-03-15T10:08:48.271Z,48.92
2018-03-15T10:11:14.749Z,44.74
2018-03-15T10:13:41.294Z,43.75
2018-03-15T10:16:07.757Z,44.12
2018-03-15T10:18:34.141Z,43.31
2018-03-15T10:21:00.730Z,49.96
2018-03-15T10:23:27.194Z,44.02
2018-03-15T10:25:53.649Z,42.79
2018-03-15T10:28:20.394Z,42.51
2018-03-15T10:30:46.819Z,48.35
2018-03-15T10:33:19.222Z,47.58
2018-03-15T10:35:45.758Z,42.97
2018-03-15T10:38:12.213Z,43.59
2018-03-15T10:40:38.656Z,42.44
2018-03-15T10:43:05.125Z,44.08
2018-03-15T10:45:31.830Z,42.82
2018-03-15T10:47:58.341Z,46.50
2018-03-15T10:50:24.773Z,42.45
2018-03-15T10:52:51.253Z,43.92
2018-03-15T10:55:17.694Z,46.03
2018-03-15T10:57:44.112Z,48.67
2018-03-15T11:00:10.532Z,53.98
2018-03-15T11:02:43.053Z,41.61
2018-03-15T11:05:15.701Z,42.18
2018-03-15T11:07:42.198Z,42.93
2018-03-15T11:10:08.628Z,42.65
2018-03-15T11:12:35.283Z,41.13
2018-03-15T11:15:01.702Z,47.64
2018-03-15T11:17:28.178Z,43.52
2018-03-15T11:19:54.650Z,40.11
2018-03-15T11:22:21.139Z,51.14
2018-03-15T11:24:47.541Z,38.35
2018-03-15T11:27:13.950Z,39.21
2018-03-15T11:29:40.377Z,47.99
2018-03-15T11:32:06.905Z,38.58
2018-03-15T11:34:33.310Z,41.17
2018-03-15T11:36:59.901Z,50.16
2018-03-15T11:39:26.303Z,41.77
2018-03-15T11:41:52.702Z,44.60
2018-03-15T11:44:19.147Z,47.83
2018-03-15T11:46:45.561Z,38.33
2018-03-15T11:49:11.969Z,38.99
2018-03-15T11:51:38.418Z,38.50
2018-03-15T11:54:04.859Z,45.56
2018-03-15T11:56:31.333Z,48.91
2018-03-15T11:58:57.757Z,40.99
2018-03-15T12:01:24.213Z,49.29
2018-03-15T12:03:50.631Z,51.65
2018-03-15T12:06:17.103Z,40.29
2018-03-15T12:08:43.519Z,38.08
2018-03-15T12:11:15.150Z,49.11
2018-03-15T12:13:43.139Z,46.80
2018-03-15T12:16:09.644Z,41.09
2018-03-15T12:18:36.087Z,38.24
2018-03-15T12:21:02.471Z,42.36
2018-03-15T12:23:28.885Z,46.05
2018-03-15T12:25:55.272Z,45.96
2018-03-15T12:28:21.682Z,40.50
2018-03-15T12:30:48.070Z,37.66
2018-03-15T12:33:14.422Z,36.97
2018-03-15T12:35:40.842Z,40.63
2018-03-15T12:38:07.211Z,39.55
2018-03-15T12:40:33.792Z,38.01
2018-03-15T12:43:00.206Z,40.16
2018-03-15T12:45:26.638Z,39.07
2018-03-15T12:47:53.125Z,50.35
2018-03-15T12:50:19.588Z,40.38
2018-03-15T12:52:45.978Z,39.19
2018-03-15T12:55:12.430Z,45.62
2018-03-15T12:57:38.841Z,38.23
2018-03-15T13:00:05.265Z,52.78
2018-03-15T13:02:31.845Z,46.50
2018-03-15T13:04:58.270Z,51.66
2018-03-15T13:07:24.662Z,52.14
2018-03-15T13:09:51.254Z,39.01
2018-03-15T13:12:17.694Z,50.58
2018-03-15T13:14:44.080Z,53.47
2018-03-15T13:17:10.517Z,39.58
2018-03-15T13:19:36.937Z,37.89
2018-03-15T13:22:03.525Z,40.71
2018-03-15T13:24:30.030Z,41.98
2018-03-15T13:26:56.474Z,54.58
2018-03-15T13:29:22.855Z,54.52
2018-03-15T13:31:49.257Z,40.69
2018-03-15T13:34:15.665Z,38.04
2018-03-15T13:36:44.301Z,46.96
2018-03-15T13:39:11.737Z,50.06
2018-03-15T13:41:38.126Z,42.79
2018-03-15T13:44:04.533Z,50.73
2018-03-15T13:46:30.998Z,39.01
2018-03-15T13:48:57.431Z,44.61
2018-03-15T13:51:23.857Z,52.70
2018-03-15T13:53:50.334Z,48.34
2018-03-15T13:56:16.774Z,51.36
2018-03-15T13:58:43.178Z,51.35
2018-03-15T14:01:10.138Z,56.36
2018-03-15T14:03:37.288Z,56.58
2018-03-15T14:06:03.794Z,56.25
2018-03-15T14:08:30.193Z,56.98
2018-03-15T14:10:56.595Z,54.99
2018-03-15T14:13:22.934Z,47.24
2018-03-15T14:15:50.198Z,51.58
2018-03-15T14:18:16.682Z,52.98
2018-03-15T14:20:43.189Z,55.76
2018-03-15T14:23:09.766Z,55.39
2018-03-15T14:25:36.310Z,57.37
2018-03-15T14:28:02.969Z,55.70
2018-03-15T14:30:29.326Z,57.71
2018-03-15T14:32:55.687Z,57.76
2018-03-15T14:35:22.121Z,56.68
2018-03-15T14:37:48.470Z,56.60
2018-03-15T14:40:15.122Z,49.04
2018-03-15T14:42:41.494Z,45.12
2018-03-15T14:45:07.902Z,43.70
2018-03-15T14:47:34.306Z,43.33
2018-03-15T14:50:00.756Z,50.36
2018-03-15T14:52:27.154Z,49.18
2018-03-15T14:54:53.553Z,45.53
2018-03-15T14:57:19.941Z,51.42
2018-03-15T14:59:46.427Z,43.61
2018-03-15T15:02:12.865Z,47.02
2018-03-15T15:04:39.206Z,44.94
2018-03-15T15:07:05.650Z,56.43
2018-03-15T15:09:32.121Z,56.50
2018-03-15T15:11:58.581Z,58.24
2018-03-15T15:14:25.034Z,58.93
2018-03-15T15:16:51.646Z,57.31
2018-03-15T15:19:18.102Z,55.46
2018-03-15T15:21:44.514Z,55.73
2018-03-15T15:24:10.962Z,55.58
2018-03-15T15:26:37.655Z,54.62
2018-03-15T15:29:04.101Z,49.19
2018-03-15T15:31:30.598Z,50.42
2018-03-15T15:33:57.099Z,48.10
2018-03-15T15:36:23.549Z,53.56
2018-03-15T15:38:50.018Z,53.53
2018-03-15T15:41:16.442Z,56.33
2018-03-15T15:43:42.966Z,55.79
2018-03-15T15:46:09.454Z,58.09
2018-03-15T15:48:35.861Z,54.07
2018-03-15T15:51:02.339Z,55.95
2018-03-15T15:53:28.843Z,57.44
2018-03-15T15:55:55.338Z,53.75
2018-03-15T15:58:21.713Z,50.41
2018-03-15T16:00:48.221Z,52.71
2018-03-15T16:03:14.687Z,54.70
2018-03-15T16:05:41.202Z,54.17
2018-03-15T16:08:08.653Z,53.77
2018-03-15T16:10:35.235Z,58.17
2018-03-15T16:13:01.730Z,57.83
2018-03-15T16:15:28.227Z,53.01
2018-03-15T16:17:54.844Z,59.10
2018-03-15T16:20:21.251Z,59.20
2018-03-15T16:22:47.749Z,50.60
2018-03-15T16:25:14.182Z,53.18
2018-03-15T16:27:40.610Z,47.46
2018-03-15T16:30:07.095Z,49.05
2018-03-15T16:32:33.560Z,53.08
2018-03-15T16:34:59.934Z,52.73
2018-03-15T16:37:26.363Z,60.55
2018-03-15T16:39:52.845Z,58.58
2018-03-15T16:42:19.413Z,56.06
2018-03-15T16:44:45.995Z,59.06
2018-03-15T16:47:13.079Z,52.06
2018-03-15T16:49:40.065Z,49.06
2018-03-15T16:52:07.340Z,52.91
2018-03-15T16:54:34.173Z,60.38
2018-03-15T16:57:04.560Z,48.66
2018-03-15T16:59:31.405Z,58.73
2018-03-15T17:01:58.034Z,47.69
2018-03-15T17:04:24.705Z,47.75
2018-03-15T17:06:51.242Z,55.52
2018-03-15T17:09:17.977Z,48.17
2018-03-15T17:11:44.570Z,47.87
2018-03-15T17:14:11.834Z,50.07
2018-03-15T17:16:38.710Z,48.27
2018-03-15T17:19:05.306Z,55.85
2018-03-15T17:21:31.687Z,49.29
2018-03-15T17:23:58.175Z,52.46
2018-03-15T17:26:24.746Z,54.02
2018-03-15T17:28:52.121Z,55.20
2018-03-15T17:31:18.601Z,49.07
2018-03-15T17:33:45.013Z,48.61
2018-03-15T17:36:11.448Z,48.88
2018-03-15T17:38:37.839Z,49.62
2018-03-15T17:41:05.025Z,55.61
2018-03-15T17:43:31.486Z,49.24
2018-03-15T17:45:58.066Z,49.32
2018-03-15T17:48:24.553Z,49.52
2018-03-15T17:50:50.914Z,49.55
2018-03-15T17:53:17.405Z,49.32
2018-03-15T17:55:43.918Z,49.58
2018-03-15T17:58:10.777Z,49.45
2018-03-15T18:00:37.179Z,49.51
2018-03-15T18:03:03.617Z,49.76
2018-03-15T18:05:30.054Z,50.04
2018-03-15T18:07:56.479Z,49.96
2018-03-15T18:10:22.911Z,50.13
2018-03-15T18:12:49.324Z,50.06
2018-03-15T18:15:15.780Z,50.44
2018-03-15T18:17:42.244Z,50.60
2018-03-15T18:20:08.738Z,50.67
2018-03-15T18:22:35.210Z,50.34
2018-03-15T18:25:01.695Z,51.99
2018-03-15T18:27:28.126Z,51.16
2018-03-15T18:29:54.558Z,54.19
2018-03-15T18:32:20.973Z,51.79
2018-03-15T18:34:47.518Z,51.07
2018-03-15T18:37:13.937Z,53.54
2018-03-15T18:39:40.326Z,51.50
2018-03-15T18:42:06.842Z,53.83
2018-03-15T18:44:33.297Z,53.94
2018-03-15T18:46:59.710Z,55.78
2018-03-15T18:49:26.216Z,55.33
2018-03-15T18:51:52.655Z,57.21
2018-03-15T18:54:29.859Z,55.91
2018-03-15T18:56:59.422Z,59.73
2018-03-15T18:59:27.224Z,56.20
2018-03-15T19:04:35.687Z,59.41
2018-03-15T19:07:02.993Z,52.83
2018-03-15T19:09:29.398Z,58.66
2018-03-15T19:11:56.734Z,56.65
2018-03-15T19:14:23.162Z,56.05
2018-03-15T19:16:49.630Z,56.56
2018-03-15T19:19:16.063Z,60.27
2018-03-15T19:21:42.465Z,62.26
2018-03-15T19:24:08.902Z,59.09
2018-03-15T19:26:35.314Z,56.58
2018-03-15T19:29:01.768Z,56.82
2018-03-15T19:31:28.158Z,53.63
2018-03-15T19:33:54.649Z,59.34
2018-03-15T19:36:21.046Z,58.31
2018-03-15T19:38:47.503Z,56.53
2018-03-15T19:41:13.954Z,57.70
2018-03-15T19:43:40.382Z,55.63
2018-03-15T19:46:06.799Z,56.50
2018-03-15T19:48:33.251Z,55.47
2018-03-15T19:50:59.626Z,55.16
2018-03-15T19:53:26.039Z,63.30
2018-03-15T19:55:52.457Z,58.61
2018-03-15T19:58:18.838Z,61.96
2018-03-15T20:00:45.279Z,59.86
2018-03-15T20:03:11.658Z,58.13
2018-03-15T20:05:38.022Z,57.34
2018-03-15T20:08:04.561Z,59.58
2018-03-15T20:10:32.083Z,56.42
2018-03-15T20:12:58.618Z,61.81
2018-03-15T20:15:25.094Z,59.53
2018-03-15T20:17:51.449Z,58.90
2018-03-15T20:20:17.866Z,60.37
2018-03-15T20:22:50.392Z,55.34
2018-03-15T20:25:18.012Z,54.55
2018-03-15T20:27:50.430Z,62.91
2018-03-15T20:30:16.917Z,55.31
2018-03-15T20:32:49.488Z,55.16
2018-03-15T20:35:15.909Z,55.24
2018-03-15T20:37:42.297Z,55.38
2018-03-15T20:40:14.755Z,55.39
2018-03-15T20:42:41.409Z,55.39
2018-03-15T20:45:07.994Z,55.15
2018-03-15T20:47:40.521Z,55.89
2018-03-15T20:50:06.966Z,55.46
2018-03-15T20:52:33.314Z,55.68
2018-03-15T20:54:59.715Z,55.90
2018-03-15T20:57:26.178Z,55.73
2018-03-15T20:59:52.669Z,56.26
2018-03-15T21:02:19.066Z,58.06
2018-03-15T21:04:45.429Z,56.51
2018-03-15T21:07:11.846Z,56.50
2018-03-15T21:09:38.261Z,57.22
2018-03-15T21:12:04.729Z,56.69
2018-03-15T21:14:31.150Z,57.01
2018-03-15T21:16:57.727Z,57.12
2018-03-15T21:19:24.159Z,56.98
2018-03-15T21:21:50.572Z,58.26
2018-03-15T21:24:17.025Z,58.47
2018-03-15T21:26:43.533Z,57.99
2018-03-15T21:29:09.948Z,63.23
2018-03-15T21:31:36.382Z,58.52
2018-03-15T21:34:02.826Z,58.49
2018-03-15T21:36:29.303Z,58.70
2018-03-15T21:38:55.746Z,59.98
2018-03-15T21:41:22.218Z,57.98
2018-03-15T21:43:48.618Z,59.27
2018-03-15T21:46:15.078Z,59.00
2018-03-15T21:48:41.518Z,57.75
2018-03-15T21:51:07.938Z,58.22
2018-03-15T21:53:34.389Z,60.53
2018-03-15T21:56:00.739Z,58.29
2018-03-15T21:58:27.217Z,57.90
2018-03-15T22:00:53.690Z,58.34
2018-03-15T22:03:20.029Z,58.04
2018-03-15T22:05:46.457Z,58.04
2018-03-15T22:08:12.885Z,58.40
2018-03-15T22:10:39.277Z,59.99
2018-03-15T22:13:05.722Z,58.78
2018-03-15T22:15:32.157Z,64.75
2018-03-15T22:17:58.641Z,59.12
2018-03-15T22:20:25.075Z,59.27
2018-03-15T22:22:51.448Z,58.89
2018-03-15T22:25:17.886Z,59.08
2018-03-15T22:27:44.298Z,59.28
2018-03-15T22:30:11.115Z,59.39
2018-03-15T22:32:37.506Z,59.31
2018-03-15T22:35:03.922Z,59.89
2018-03-15T22:37:30.274Z,59.47
2018-03-15T22:39:56.745Z,59.74
2018-03-15T22:42:23.186Z,59.38
2018-03-15T22:44:49.603Z,59.41
2018-03-15T22:47:16.038Z,60.26
2018-03-15T22:49:42.490Z,59.56
2018-03-15T22:52:08.922Z,59.94
2018-03-15T22:54:35.324Z,60.56
2018-03-15T22:57:01.724Z,60.57
2018-03-15T22:59:28.137Z,59.87
2018-03-15T23:01:54.650Z,60.06
2018-03-15T23:04:21.101Z,60.02
2018-03-15T23:06:47.528Z,59.98
2018-03-15T23:09:13.918Z,60.44
2018-03-15T23:11:40.340Z,60.76
2018-03-15T23:14:06.706Z,60.72
2018-03-15T23:16:33.098Z,61.16
2018-03-15T23:18:59.734Z,60.09
2018-03-15T23:21:26.102Z,60.28
2018-03-15T23:23:52.428Z,60.46
2018-03-15T23:26:18.820Z,59.56
2018-03-15T23:28:45.182Z,59.69
2018-03-15T23:31:11.646Z,59.70
2018-03-15T23:33:38.070Z,60.17
2018-03-15T23:36:04.470Z,59.95
2018-03-15T23:38:30.842Z,59.79
2018-03-15T23:40:57.141Z,60.03
2018-03-15T23:43:23.533Z,59.95
2018-03-15T23:45:49.917Z,59.54
2018-03-15T23:48:16.291Z,59.59
2018-03-15T23:50:42.726Z,59.76
2018-03-15T23:53:09.157Z,59.29
2018-03-15T23:55:35.578Z,59.02
2018-03-15T23:58:01.922Z,59.51
